Time;durP1;ratioP1;P1;durP2;ratioP2;P2;SDS_P1;SDS_P2;PMS_P1;PMS_P2;Temp;Humidity;BMP_temperature;BMP_pressure;BME280_temperature;BME280_humidity;BME280_pressure;Samples;Min_cycle;Max_cycle;Signal;HPM_P1;HPM_P2
2021/07/12 00:00:51;;;;;;;58.03;2.70;;;15.00;1.00;;;;;;5072114;28;20835;-72
2021/07/12 00:03:18;;;;;;;59.30;2.70;;;15.00;1.00;;;;;;5069982;28;20980;-72
2021/07/12 00:05:45;;;;;;;58.30;2.60;;;15.00;1.00;;;;;;5072160;28;20827;-72
2021/07/12 00:08:12;;;;;;;58.70;2.70;;;14.90;1.00;;;;;;5072150;28;20461;-71
2021/07/12 00:10:41;;;;;;;58.67;2.80;;;14.80;1.00;;;;;;5072024;28;20475;-72
2021/07/12 00:13:08;;;;;;;58.60;3.07;;;14.80;1.00;;;;;;5071640;28;20966;-72
2021/07/12 00:15:34;;;;;;;58.37;2.70;;;14.80;1.00;;;;;;5071778;28;20463;-71
2021/07/12 00:18:01;;;;;;;58.43;2.80;;;14.80;1.00;;;;;;5071808;28;20490;-72
2021/07/12 00:20:28;;;;;;;58.27;2.80;;;14.80;1.00;;;;;;5072008;28;20534;-71
2021/07/12 00:22:57;;;;;;;58.80;2.80;;;14.80;1.00;;;;;;5071611;28;20886;-72
2021/07/12 00:25:25;;;;;;;58.87;3.40;;;14.80;1.00;;;;;;5071799;28;20555;-72
2021/07/12 00:27:54;;;;;;;58.27;2.63;;;14.80;1.00;;;;;;5071918;28;20539;-71
2021/07/12 00:30:22;;;;;;;58.27;2.73;;;14.70;1.00;;;;;;5071521;28;21027;-72
2021/07/12 00:32:50;;;;;;;58.43;2.70;;;14.70;1.00;;;;;;5071678;28;20535;-72
2021/07/12 00:35:18;;;;;;;58.43;2.70;;;14.60;1.00;;;;;;5070225;28;20545;-72
2021/07/12 00:37:45;;;;;;;58.07;2.53;;;14.60;1.00;;;;;;5071751;28;20444;-72
2021/07/12 00:40:14;;;;;;;58.20;2.93;;;14.60;1.00;;;;;;5071906;28;20530;-72
2021/07/12 00:42:41;;;;;;;58.13;2.60;;;14.60;1.00;;;;;;5071217;28;20530;-71
2021/07/12 00:45:13;;;;;;;58.57;2.60;;;14.50;1.00;;;;;;5071832;28;20558;-72
2021/07/12 00:47:41;;;;;;;58.47;2.53;;;14.50;1.00;;;;;;5075387;28;20530;-72
2021/07/12 00:50:10;;;;;;;58.60;2.70;;;14.50;1.00;;;;;;5075389;28;20573;-72
2021/07/12 00:52:37;;;;;;;58.47;2.80;;;14.50;1.00;;;;;;5075400;28;20830;-72
2021/07/12 00:55:16;;;;;;;58.47;2.70;;;14.40;1.00;;;;;;5075659;28;20471;-72
2021/07/12 00:57:43;;;;;;;58.27;2.70;;;14.40;1.00;;;;;;5075574;28;20470;-72
2021/07/12 01:00:14;;;;;;;59.27;3.07;;;14.30;1.00;;;;;;5075685;28;20451;-72
2021/07/12 01:02:41;;;;;;;58.47;2.70;;;14.20;1.00;;;;;;5075283;28;20446;-72
2021/07/12 01:05:13;;;;;;;58.37;2.50;;;14.20;1.00;;;;;;5075025;28;21070;-70
2021/07/12 01:07:40;;;;;;;58.33;2.50;;;14.20;1.00;;;;;;5058253;28;20833;-72
2021/07/12 01:10:08;;;;;;;58.53;2.70;;;14.20;1.00;;;;;;5075184;28;20916;-72
2021/07/12 01:12:42;;;;;;;58.47;2.57;;;14.20;1.00;;;;;;5074993;28;20450;-72
2021/07/12 01:15:15;;;;;;;58.87;2.80;;;14.30;1.00;;;;;;5075321;28;20467;-72
2021/07/12 01:17:52;;;;;;;58.60;2.70;;;14.20;1.00;;;;;;5075339;28;20447;-72
2021/07/12 01:20:59;;;;;;;58.37;2.70;;;14.20;1.00;;;;;;5074956;28;20521;-72
2021/07/12 01:23:36;;;;;;;58.57;2.70;;;14.10;1.00;;;;;;5074967;28;20451;-72
2021/07/12 01:26:56;;;;;;;58.90;2.90;;;14.00;1.00;;;;;;5075047;28;20454;-72
2021/07/12 01:29:34;;;;;;;58.97;3.30;;;14.00;1.00;;;;;;5075090;28;20530;-72
2021/07/12 01:32:38;;;;;;;58.63;2.80;;;14.00;1.00;;;;;;5074665;28;20500;-72
2021/07/12 01:35:16;;;;;;;58.43;2.70;;;14.00;1.00;;;;;;5074656;28;21022;-72
2021/07/12 01:37:51;;;;;;;58.27;2.60;;;14.00;1.00;;;;;;5061731;28;20453;-72
2021/07/12 01:40:26;;;;;;;58.60;2.70;;;14.00;1.00;;;;;;5071021;28;20966;-71
2021/07/12 01:43:01;;;;;;;58.43;2.80;;;13.90;1.00;;;;;;5074650;28;20525;-72
2021/07/12 01:45:36;;;;;;;58.57;2.77;;;13.90;1.00;;;;;;5074567;28;20978;-72
2021/07/12 01:48:08;;;;;;;58.60;3.13;;;13.90;1.00;;;;;;5074793;28;20543;-72
2021/07/12 01:50:45;;;;;;;58.40;2.70;;;13.90;2.10;;;;;;5074427;28;21002;-72
2021/07/12 01:53:16;;;;;;;58.37;2.67;;;13.90;1.70;;;;;;5074290;28;20446;-72
2021/07/12 01:55:50;;;;;;;58.90;3.30;;;13.90;1.90;;;;;;5074364;28;20534;-72
2021/07/12 01:58:24;;;;;;;58.27;2.60;;;13.90;1.80;;;;;;5074621;28;20534;-72
2021/07/12 02:00:53;;;;;;;58.50;2.87;;;13.90;1.00;;;;;;5074575;28;20434;-71
2021/07/12 02:03:22;;;;;;;58.60;3.07;;;13.90;1.00;;;;;;5074012;28;20550;-72
2021/07/12 02:05:50;;;;;;;58.27;3.00;;;13.90;1.00;;;;;;5074259;28;20541;-72
2021/07/12 02:08:21;;;;;;;57.93;2.60;;;13.90;1.00;;;;;;5072527;28;20542;-71
2021/07/12 02:10:50;;;;;;;59.00;3.10;;;13.80;1.00;;;;;;5073860;28;21018;-72
2021/07/12 02:13:18;;;;;;;58.43;2.60;;;13.80;1.00;;;;;;5073408;28;20449;-72
2021/07/12 02:15:48;;;;;;;58.47;2.70;;;13.80;1.00;;;;;;5074008;28;20443;-72
2021/07/12 02:18:16;;;;;;;58.30;2.50;;;13.80;1.00;;;;;;5074128;28;20457;-72
2021/07/12 02:20:46;;;;;;;58.33;2.60;;;13.80;1.00;;;;;;5073919;28;20877;-72
2021/07/12 02:23:16;;;;;;;58.17;2.70;;;13.80;1.00;;;;;;5073817;28;20504;-72
2021/07/12 02:25:44;;;;;;;58.17;2.50;;;13.80;1.00;;;;;;5074170;28;20443;-72
2021/07/12 02:28:13;;;;;;;58.90;3.70;;;13.70;1.00;;;;;;5074025;28;20443;-72
2021/07/12 02:30:41;;;;;;;58.37;2.60;;;13.70;1.00;;;;;;5073797;28;20479;-72
2021/07/12 02:33:09;;;;;;;58.43;2.60;;;13.70;1.00;;;;;;5073390;28;20462;-72
2021/07/12 02:35:37;;;;;;;58.23;2.70;;;13.70;1.00;;;;;;5073698;28;20981;-72
2021/07/12 02:38:05;;;;;;;58.70;3.13;;;13.70;1.00;;;;;;5073900;28;20448;-72
2021/07/12 02:40:34;;;;;;;58.47;2.80;;;13.60;1.00;;;;;;5072261;28;20445;-72
2021/07/12 02:43:03;;;;;;;58.40;2.80;;;13.60;1.00;;;;;;5073383;28;20900;-72
2021/07/12 02:45:31;;;;;;;58.20;2.60;;;13.60;1.00;;;;;;5073339;28;20477;-72
2021/07/12 02:47:58;;;;;;;58.57;2.57;;;13.50;1.00;;;;;;5073773;28;20880;-71
2021/07/12 02:50:27;;;;;;;58.13;2.53;;;13.50;1.00;;;;;;5073527;28;20491;-72
2021/07/12 02:52:59;;;;;;;58.27;2.50;;;13.60;1.00;;;;;;5073076;28;20448;-71
2021/07/12 02:55:27;;;;;;;58.30;2.77;;;13.50;1.00;;;;;;5073415;28;20558;-71
2021/07/12 02:57:55;;;;;;;58.57;2.70;;;13.60;1.00;;;;;;5073428;28;20449;-72
2021/07/12 03:00:22;;;;;;;59.40;3.73;;;13.50;1.00;;;;;;5073197;28;20609;-72
2021/07/12 03:02:49;;;;;;;58.27;2.67;;;13.50;1.00;;;;;;5073015;28;20928;-72
2021/07/12 03:05:16;;;;;;;58.40;2.60;;;13.50;1.00;;;;;;5073271;28;20466;-72
2021/07/12 03:07:47;;;;;;;58.40;2.70;;;13.50;1.00;;;;;;5073271;28;20475;-72
2021/07/12 03:10:17;;;;;;;58.37;2.60;;;13.50;1.00;;;;;;5072586;28;20534;-72
2021/07/12 03:12:48;;;;;;;58.37;2.70;;;13.50;1.00;;;;;;5072757;28;20442;-72
2021/07/12 03:15:19;;;;;;;59.40;3.20;;;13.50;1.00;;;;;;5073219;28;20471;-72
2021/07/12 03:17:51;;;;;;;58.50;2.60;;;13.50;1.00;;;;;;5073337;28;20457;-72
2021/07/12 03:20:19;;;;;;;58.57;2.63;;;13.50;1.00;;;;;;5072945;28;20443;-73
2021/07/12 03:22:52;;;;;;;58.90;3.43;;;13.40;1.00;;;;;;5072535;28;20454;-72
2021/07/12 03:25:23;;;;;;;58.47;2.90;;;13.40;1.00;;;;;;5072732;28;20467;-72
2021/07/12 03:27:53;;;;;;;58.30;2.57;;;13.30;1.00;;;;;;5073010;28;20447;-72
2021/07/12 03:30:23;;;;;;;58.37;2.60;;;13.30;1.00;;;;;;5072837;28;20443;-72
2021/07/12 03:32:50;;;;;;;58.23;2.57;;;13.20;1.00;;;;;;5072768;28;20530;-72
2021/07/12 03:35:19;;;;;;;59.27;3.77;;;13.30;1.00;;;;;;5072525;28;20520;-72
2021/07/12 03:37:46;;;;;;;58.70;2.60;;;13.30;1.00;;;;;;5072466;28;20443;-71
2021/07/12 03:40:15;;;;;;;58.37;2.60;;;13.30;1.00;;;;;;5072793;28;20439;-72
2021/07/12 03:42:42;;;;;;;58.17;2.70;;;13.30;1.00;;;;;;5072451;28;20445;-71
2021/07/12 03:45:10;;;;;;;58.27;2.60;;;13.30;1.00;;;;;;5072342;28;21017;-72
2021/07/12 03:47:39;;;;;;;58.43;2.80;;;13.30;1.00;;;;;;5072428;28;20534;-72
2021/07/12 03:50:11;;;;;;;58.53;2.80;;;13.30;1.00;;;;;;5072352;28;20438;-72
2021/07/12 03:52:42;;;;;;;58.60;3.00;;;13.30;1.00;;;;;;5071938;28;20514;-72
2021/07/12 03:55:11;;;;;;;58.40;2.70;;;13.30;1.00;;;;;;5072243;28;21007;-72
2021/07/12 03:57:38;;;;;;;58.90;2.90;;;13.30;1.00;;;;;;5072291;28;20861;-72
2021/07/12 04:00:07;;;;;;;58.30;2.77;;;13.30;1.00;;;;;;5072238;28;20493;-72
2021/07/12 04:02:34;;;;;;;58.43;2.70;;;13.30;1.00;;;;;;5071737;28;20525;-72
2021/07/12 04:05:03;;;;;;;58.50;2.80;;;13.30;1.00;;;;;;5072038;28;20474;-72
2021/07/12 04:07:30;;;;;;;58.53;2.60;;;13.40;1.00;;;;;;5072303;28;20830;-72
2021/07/12 04:09:57;;;;;;;58.27;2.70;;;13.40;1.00;;;;;;5072132;28;20451;-72
2021/07/12 04:12:24;;;;;;;59.10;3.10;;;13.40;1.00;;;;;;5071803;28;20573;-72
2021/07/12 04:14:51;;;;;;;60.13;3.00;;;13.40;1.00;;;;;;5071965;28;20471;-72
2021/07/12 04:17:18;;;;;;;58.20;2.60;;;13.40;1.00;;;;;;5071938;28;20449;-72
2021/07/12 04:19:45;;;;;;;60.00;3.10;;;13.40;1.00;;;;;;5071954;28;20449;-72
2021/07/12 04:22:14;;;;;;;58.67;2.70;;;13.30;1.00;;;;;;5071156;28;20445;-72
2021/07/12 04:24:41;;;;;;;58.63;2.63;;;13.30;1.00;;;;;;5071984;28;20553;-71
2021/07/12 04:27:08;;;;;;;58.37;2.70;;;13.30;2.40;;;;;;5071871;28;21016;-72
2021/07/12 04:29:35;;;;;;;58.50;2.60;;;13.30;3.60;;;;;;5071874;28;20469;-72
2021/07/12 04:32:01;;;;;;;58.27;2.70;;;13.30;8.50;;;;;;5071297;28;20479;-72
2021/07/12 04:34:29;;;;;;;58.47;2.70;;;13.30;11.70;;;;;;5071714;28;20467;-72
2021/07/12 04:36:55;;;;;;;58.37;2.70;;;13.30;12.30;;;;;;5071700;28;20533;-72
2021/07/12 04:39:24;;;;;;;58.37;2.90;;;13.40;14.10;;;;;;5071748;28;20521;-72
2021/07/12 04:41:51;;;;;;;58.50;3.00;;;13.40;17.00;;;;;;5071521;28;20501;-72
2021/07/12 04:44:18;;;;;;;58.23;2.67;;;13.40;20.40;;;;;;5071628;28;20558;-72
2021/07/12 04:46:44;;;;;;;58.20;2.80;;;13.40;21.70;;;;;;5071566;28;20449;-72
2021/07/12 04:49:11;;;;;;;58.40;2.70;;;13.50;22.10;;;;;;5071801;28;20451;-71
2021/07/12 04:51:39;;;;;;;58.57;3.10;;;13.50;23.60;;;;;;5071376;28;20479;-72
2021/07/12 04:54:05;;;;;;;58.37;2.67;;;13.50;23.40;;;;;;5071557;28;20463;-72
2021/07/12 04:56:35;;;;;;;58.57;2.90;;;13.50;25.20;;;;;;5071656;28;20457;-72
2021/07/12 04:59:04;;;;;;;58.27;2.53;;;13.60;27.00;;;;;;5071539;28;20457;-72
2021/07/12 05:01:33;;;;;;;58.27;2.60;;;13.60;28.70;;;;;;5071410;28;20479;-72
2021/07/12 05:04:01;;;;;;;59.47;3.13;;;13.70;29.50;;;;;;5071318;28;20513;-72
2021/07/12 05:06:28;;;;;;;58.30;3.20;;;13.70;29.50;;;;;;5071532;28;20447;-72
2021/07/12 05:08:55;;;;;;;58.30;2.60;;;13.80;30.50;;;;;;5071517;28;20486;-72
2021/07/12 05:11:22;;;;;;;57.97;2.60;;;13.90;32.00;;;;;;5071215;28;20483;-72
2021/07/12 05:13:50;;;;;;;58.33;2.60;;;13.90;33.40;;;;;;5071133;28;20550;-72
2021/07/12 05:16:17;;;;;;;58.47;3.20;;;14.00;34.30;;;;;;5071461;28;20447;-72
2021/07/12 05:18:44;;;;;;;58.37;2.60;;;14.00;33.50;;;;;;5071317;28;20453;-72
2021/07/12 05:21:11;;;;;;;58.40;2.67;;;14.10;33.50;;;;;;5071312;28;20543;-72
2021/07/12 05:23:38;;;;;;;58.90;3.20;;;14.30;49.10;;;;;;5071118;28;20469;-73
2021/07/12 05:26:05;;;;;;;58.70;3.30;;;14.60;65.90;;;;;;5071219;28;20469;-73
2021/07/12 05:28:32;;;;;;;58.20;2.70;;;14.90;68.00;;;;;;5071522;28;20447;-73
2021/07/12 05:31:00;;;;;;;58.70;3.00;;;15.20;66.40;;;;;;5071286;28;20447;-73
2021/07/12 05:33:28;;;;;;;58.87;4.40;;;15.40;63.30;;;;;;5073089;28;20475;-72
2021/07/12 05:35:54;;;;;;;58.60;2.90;;;15.60;54.00;;;;;;5074896;28;20971;-72
2021/07/12 05:38:21;;;;;;;58.17;2.77;;;15.70;43.70;;;;;;5074855;28;20448;-73
2021/07/12 05:40:48;;;;;;;58.03;2.63;;;15.90;33.40;;;;;;5074696;28;20547;-73
2021/07/12 05:43:15;;;;;;;58.40;3.10;;;16.00;23.80;;;;;;5074536;28;20540;-72
2021/07/12 05:45:42;;;;;;;58.27;2.50;;;16.10;17.40;;;;;;5075115;28;20447;-73
2021/07/12 05:48:10;;;;;;;58.43;2.93;;;16.20;9.50;;;;;;5074934;28;20476;-72
2021/07/12 05:50:38;;;;;;;58.30;2.60;;;16.30;2.30;;;;;;5074657;28;20561;-72
2021/07/12 05:53:05;;;;;;;58.70;2.70;;;16.40;1.00;;;;;;5074284;28;20482;-72
2021/07/12 05:55:32;;;;;;;58.23;2.73;;;16.40;1.00;;;;;;5074631;28;20896;-72
2021/07/12 05:57:59;;;;;;;58.40;2.97;;;16.50;1.00;;;;;;5074457;28;20452;-71
2021/07/12 06:00:26;;;;;;;58.10;2.70;;;16.50;1.00;;;;;;5074608;28;20445;-73
2021/07/12 06:02:53;;;;;;;58.90;3.43;;;16.60;1.00;;;;;;5073987;28;20461;-72
2021/07/12 06:05:21;;;;;;;59.00;3.07;;;16.70;1.00;;;;;;5074422;28;20491;-72
2021/07/12 06:07:48;;;;;;;58.30;2.60;;;16.80;1.00;;;;;;5074241;28;20445;-73
2021/07/12 06:10:15;;;;;;;58.13;2.63;;;16.80;1.00;;;;;;5074573;28;20453;-73
2021/07/12 06:12:42;;;;;;;58.20;2.60;;;16.80;1.00;;;;;;5074200;28;20495;-73
2021/07/12 06:15:10;;;;;;;58.20;2.70;;;16.90;1.00;;;;;;5074294;28;20889;-73
2021/07/12 06:17:38;;;;;;;57.87;2.60;;;16.90;1.00;;;;;;5074303;28;20548;-72
2021/07/12 06:20:08;;;;;;;57.40;2.60;;;17.00;1.00;;;;;;5074272;28;20870;-73
2021/07/12 06:22:36;;;;;;;58.37;2.70;;;17.10;1.00;;;;;;5073743;28;20452;-73
2021/07/12 06:25:04;;;;;;;57.97;2.70;;;17.20;1.00;;;;;;5074151;28;20472;-72
2021/07/12 06:27:31;;;;;;;58.60;3.03;;;17.30;1.00;;;;;;5074168;28;20447;-74
2021/07/12 06:29:58;;;;;;;58.20;2.47;;;17.40;1.00;;;;;;5074001;28;20447;-73
2021/07/12 06:32:25;;;;;;;58.30;2.60;;;17.40;1.00;;;;;;5073545;28;20848;-72
2021/07/12 06:34:51;;;;;;;58.20;2.70;;;17.50;1.00;;;;;;5073770;28;20513;-73
2021/07/12 06:37:18;;;;;;;58.07;2.63;;;17.70;1.00;;;;;;5073980;28;20537;-73
2021/07/12 06:39:46;;;;;;;58.50;2.80;;;17.80;1.00;;;;;;5073903;28;20554;-73
2021/07/12 06:42:13;;;;;;;58.23;2.60;;;18.00;1.00;;;;;;5073401;28;20952;-73
2021/07/12 06:44:41;;;;;;;57.97;2.50;;;18.20;1.00;;;;;;5072699;28;20477;-73
2021/07/12 06:47:09;;;;;;;58.50;2.70;;;18.30;1.00;;;;;;5073726;28;20457;-71
2021/07/12 06:49:36;;;;;;;57.60;2.67;;;18.50;1.00;;;;;;5073466;28;20455;-73
2021/07/12 06:52:03;;;;;;;58.00;2.60;;;18.60;1.00;;;;;;5073397;28;20505;-72
2021/07/12 06:54:29;;;;;;;58.27;2.50;;;18.80;1.00;;;;;;5073480;28;21053;-73
2021/07/12 06:56:58;;;;;;;58.27;2.90;;;19.00;1.00;;;;;;5073496;28;20447;-73
2021/07/12 06:59:24;;;;;;;58.13;2.40;;;19.20;1.00;;;;;;5073462;28;20903;-73
2021/07/12 07:01:51;;;;;;;58.17;2.60;;;19.40;1.00;;;;;;5073289;28;20443;-73
2021/07/12 07:04:18;;;;;;;57.67;2.50;;;19.50;1.00;;;;;;5073048;28;20485;-73
2021/07/12 07:06:45;;;;;;;58.50;2.67;;;19.70;1.00;;;;;;5073375;28;20534;-72
2021/07/12 07:09:12;;;;;;;58.80;3.17;;;19.90;1.00;;;;;;5069370;28;20869;-72
2021/07/12 07:11:39;;;;;;;58.40;2.50;;;20.10;1.00;;;;;;5071496;28;20538;-72
2021/07/12 07:14:07;;;;;;;57.60;2.40;;;20.20;1.00;;;;;;5072885;28;20561;-72
2021/07/12 07:16:34;;;;;;;58.00;2.50;;;20.30;1.00;;;;;;5072893;28;20952;-72
2021/07/12 07:19:01;;;;;;;58.10;2.50;;;20.50;1.00;;;;;;5072378;28;20876;-71
2021/07/12 07:21:28;;;;;;;57.93;2.20;;;20.70;1.00;;;;;;5072190;28;21019;-69
2021/07/12 07:23:54;;;;;;;57.63;2.43;;;20.80;1.00;;;;;;5072705;28;21034;-69
2021/07/12 07:26:21;;;;;;;57.53;2.50;;;20.90;1.00;;;;;;5072665;28;20447;-71
2021/07/12 07:28:48;;;;;;;57.30;2.40;;;21.00;1.00;;;;;;5072635;28;20441;-71
2021/07/12 07:31:16;;;;;;;57.40;2.70;;;21.00;1.00;;;;;;5072418;28;20534;-70
2021/07/12 07:33:43;;;;;;;58.40;2.70;;;21.10;1.00;;;;;;5072475;28;20485;-70
2021/07/12 07:36:10;;;;;;;57.77;2.60;;;21.20;1.00;;;;;;5072712;28;20545;-70
2021/07/12 07:38:38;;;;;;;57.63;2.13;;;21.30;1.00;;;;;;5072569;28;20532;-71
2021/07/12 07:41:05;;;;;;;57.50;2.20;;;21.30;1.00;;;;;;5072507;28;20475;-70
2021/07/12 07:43:32;;;;;;;58.17;2.40;;;21.30;1.00;;;;;;5072142;28;20499;-70
2021/07/12 07:45:58;;;;;;;57.80;2.20;;;21.20;1.00;;;;;;5072531;28;20536;-70
2021/07/12 07:48:27;;;;;;;58.80;2.60;;;21.20;1.00;;;;;;5072405;28;20829;-70
2021/07/12 07:50:54;;;;;;;58.30;2.30;;;21.10;1.00;;;;;;5072242;28;20454;-70
2021/07/12 07:53:20;;;;;;;57.93;2.73;;;21.10;1.00;;;;;;5071992;28;20491;-70
2021/07/12 07:55:47;;;;;;;58.00;2.30;;;21.10;1.00;;;;;;5072114;28;20902;-70
2021/07/12 07:58:14;;;;;;;57.97;2.77;;;21.10;1.00;;;;;;5071962;28;20552;-70
2021/07/12 08:00:41;;;;;;;58.10;2.30;;;21.10;1.00;;;;;;5072400;28;20473;-70
2021/07/12 08:03:08;;;;;;;58.07;2.43;;;21.20;1.00;;;;;;5071897;28;20547;-70
2021/07/12 08:05:36;;;;;;;58.37;2.90;;;21.20;1.00;;;;;;5072079;28;20531;-70
2021/07/12 08:08:04;;;;;;;58.30;2.67;;;21.20;1.00;;;;;;5070823;28;20537;-71
2021/07/12 08:10:31;;;;;;;58.00;2.47;;;21.20;1.00;;;;;;5071750;28;20454;-70
2021/07/12 08:12:58;;;;;;;58.20;2.60;;;21.30;1.00;;;;;;5071376;28;20486;-70
2021/07/12 08:15:25;;;;;;;57.93;2.63;;;21.40;1.00;;;;;;5072039;28;20469;-70
2021/07/12 08:17:52;;;;;;;57.77;2.30;;;21.50;1.00;;;;;;5072020;28;20452;-70
2021/07/12 08:20:20;;;;;;;58.10;2.60;;;21.50;1.00;;;;;;5071896;28;20457;-70
2021/07/12 08:22:51;;;;;;;58.40;2.83;;;21.60;1.00;;;;;;5071563;28;20442;-70
2021/07/12 08:25:19;;;;;;;57.87;2.60;;;21.70;1.00;;;;;;5071639;28;20566;-70
2021/07/12 08:27:46;;;;;;;57.87;2.50;;;21.90;1.00;;;;;;5071635;28;20456;-70
2021/07/12 08:30:15;;;;;;;58.20;2.47;;;22.00;1.00;;;;;;5071872;28;20538;-70
2021/07/12 08:32:43;;;;;;;58.13;3.30;;;22.10;1.00;;;;;;5071385;28;20478;-70
2021/07/12 08:35:11;;;;;;;57.20;2.20;;;22.30;1.00;;;;;;5071586;28;20548;-70
2021/07/12 08:37:38;;;;;;;58.10;2.67;;;22.40;1.00;;;;;;5071495;28;20457;-71
2021/07/12 08:40:09;;;;;;;57.70;2.30;;;22.50;1.00;;;;;;5070293;28;20871;-71
2021/07/12 08:42:36;;;;;;;57.33;2.10;;;22.50;1.00;;;;;;5071253;28;20987;-71
2021/07/12 08:45:04;;;;;;;58.03;2.30;;;22.60;1.00;;;;;;5071442;28;20554;-71
2021/07/12 08:47:31;;;;;;;57.80;2.20;;;22.60;1.00;;;;;;5071488;28;20444;-71
2021/07/12 08:49:58;;;;;;;58.00;2.40;;;22.70;1.00;;;;;;5071533;28;20451;-71
2021/07/12 08:52:25;;;;;;;57.67;2.30;;;22.80;1.00;;;;;;5070969;28;20526;-71
2021/07/12 08:54:52;;;;;;;57.73;2.20;;;22.90;1.00;;;;;;5071292;28;21066;-70
2021/07/12 08:57:20;;;;;;;58.10;2.63;;;23.00;1.00;;;;;;5071537;28;20457;-71
2021/07/12 08:59:47;;;;;;;57.90;2.47;;;23.10;1.00;;;;;;5071577;28;20815;-71
2021/07/12 09:02:15;;;;;;;58.03;2.50;;;23.20;1.00;;;;;;5071479;28;20482;-70
2021/07/12 09:04:43;;;;;;;57.67;2.30;;;23.30;1.00;;;;;;5071130;28;20481;-71
2021/07/12 09:07:13;;;;;;;57.67;2.40;;;23.40;1.00;;;;;;5072237;28;20538;-71
2021/07/12 09:09:40;;;;;;;57.80;2.07;;;23.50;1.00;;;;;;5074382;28;20530;-71
2021/07/12 09:12:14;;;;;;;57.80;2.10;;;23.60;1.00;;;;;;5074960;28;20443;-71
2021/07/12 09:14:59;;;;;;;57.90;2.10;;;23.70;1.00;;;;;;5075267;28;20467;-71
2021/07/12 09:17:31;;;;;;;57.97;2.10;;;23.80;1.00;;;;;;5075026;28;20540;-71
2021/07/12 09:19:58;;;;;;;57.67;2.10;;;24.00;1.00;;;;;;5075190;28;20969;-71
2021/07/12 09:22:31;;;;;;;57.93;2.20;;;24.10;1.00;;;;;;5074946;28;20443;-71
2021/07/12 09:25:00;;;;;;;57.77;2.60;;;24.20;1.00;;;;;;5074907;28;20470;-71
2021/07/12 09:27:28;;;;;;;58.07;2.20;;;24.30;1.00;;;;;;5075080;28;20450;-71
2021/07/12 09:29:59;;;;;;;58.03;2.27;;;24.50;1.00;;;;;;5074797;28;20447;-71
2021/07/12 09:32:27;;;;;;;57.97;2.07;;;24.60;1.00;;;;;;5074808;28;20823;-71
2021/07/12 09:34:57;;;;;;;57.77;1.97;;;24.70;1.00;;;;;;5074769;28;20546;-71
2021/07/12 09:37:25;;;;;;;58.83;3.20;;;24.80;1.00;;;;;;5074910;28;20458;-71
2021/07/12 09:39:53;;;;;;;58.10;2.63;;;24.90;1.00;;;;;;5074252;28;20447;-70
2021/07/12 09:42:22;;;;;;;57.90;2.40;;;25.00;1.00;;;;;;5057160;28;20462;-70
2021/07/12 09:44:51;;;;;;;58.07;2.40;;;25.10;1.00;;;;;;5074462;28;20490;-70
2021/07/12 09:47:21;;;;;;;58.17;2.27;;;25.30;1.00;;;;;;5074566;28;20455;-70
2021/07/12 09:49:48;;;;;;;57.83;2.40;;;25.50;1.00;;;;;;5074631;28;20940;-70
2021/07/12 09:52:17;;;;;;;57.77;2.10;;;25.60;1.00;;;;;;5074279;28;20452;-70
2021/07/12 09:54:46;;;;;;;57.47;2.10;;;25.80;1.00;;;;;;5074338;28;20479;-71
2021/07/12 09:57:15;;;;;;;58.93;3.37;;;25.90;1.00;;;;;;5074353;28;20449;-71
2021/07/12 09:59:58;;;;;;;57.47;2.10;;;25.90;1.00;;;;;;5074518;28;20833;-71
2021/07/12 10:02:28;;;;;;;57.97;2.63;;;26.10;1.00;;;;;;5074199;28;20454;-71
2021/07/12 10:04:58;;;;;;;58.30;2.47;;;26.40;1.00;;;;;;5074073;28;21042;-71
2021/07/12 10:07:26;;;;;;;57.67;2.03;;;26.60;1.00;;;;;;5074066;28;20448;-71
2021/07/12 10:09:53;;;;;;;57.63;2.17;;;26.90;1.00;;;;;;5074420;28;20536;-71
2021/07/12 10:12:20;;;;;;;57.97;2.13;;;27.00;1.00;;;;;;5072611;28;20537;-70
2021/07/12 10:14:47;;;;;;;57.70;2.47;;;27.20;1.00;;;;;;5073820;28;20580;-71
2021/07/12 10:17:15;;;;;;;57.67;2.50;;;27.40;1.00;;;;;;5074105;28;20951;-71
2021/07/12 10:19:45;;;;;;;57.90;2.27;;;27.50;1.00;;;;;;5072757;28;20805;-71
2021/07/12 10:22:13;;;;;;;57.60;2.20;;;27.70;1.00;;;;;;5073565;28;20482;-71
2021/07/12 10:24:43;;;;;;;57.83;2.27;;;28.00;1.00;;;;;;5073948;28;20912;-69
2021/07/12 10:27:21;;;;;;;57.43;2.10;;;28.30;1.00;;;;;;5074065;28;20542;-71
2021/07/12 10:29:48;;;;;;;57.80;2.17;;;28.90;1.00;;;;;;5074033;28;20769;-71
2021/07/12 10:32:17;;;;;;;57.57;2.10;;;29.60;1.00;;;;;;5073446;28;20534;-71
2021/07/12 10:34:48;;;;;;;57.37;2.00;;;30.20;1.00;;;;;;5073849;28;20487;-71
2021/07/12 10:37:21;;;;;;;57.37;2.10;;;30.70;1.00;;;;;;5073963;28;20443;-71
2021/07/12 10:40:18;;;;;;;57.60;2.20;;;30.80;1.00;;;;;;5073909;28;20798;-72
2021/07/12 10:43:05;;;;;;;57.57;2.03;;;31.00;1.00;;;;;;5073296;28;20464;-71
2021/07/12 10:45:51;;;;;;;57.50;2.10;;;31.20;1.00;;;;;;5073865;28;20826;-72
2021/07/12 10:48:19;;;;;;;60.63;2.10;;;31.00;1.00;;;;;;5073786;28;20527;-72
2021/07/12 10:50:53;;;;;;;57.47;2.00;;;30.80;1.00;;;;;;5073600;28;20451;-72
2021/07/12 10:53:37;;;;;;;57.50;1.90;;;30.50;1.00;;;;;;5073041;28;20557;-71
2021/07/12 10:56:16;;;;;;;57.67;2.03;;;30.20;1.00;;;;;;5073871;28;20447;-72
2021/07/12 10:58:53;;;;;;;57.67;2.10;;;30.10;1.00;;;;;;5073373;28;20537;-72
2021/07/12 11:01:43;;;;;;;57.40;1.90;;;30.30;1.00;;;;;;5073156;28;20538;-72
2021/07/12 11:04:38;;;;;;;58.43;1.70;;;30.40;1.00;;;;;;5064697;28;20471;-72
2021/07/12 11:07:13;;;;;;;57.40;1.87;;;30.40;1.00;;;;;;5066858;28;20796;-70
2021/07/12 11:10:00;;;;;;;57.50;2.00;;;30.20;1.00;;;;;;5073183;28;20462;-72
2021/07/12 11:12:52;;;;;;;57.50;2.03;;;30.20;1.00;;;;;;5073106;28;20444;-72
2021/07/12 11:15:43;;;;;;;57.40;1.90;;;30.00;1.00;;;;;;5072968;28;20550;-72
2021/07/12 11:18:11;;;;;;;57.80;2.17;;;30.00;1.00;;;;;;5072912;28;20520;-71
2021/07/12 11:20:45;;;;;;;57.60;2.10;;;30.10;1.00;;;;;;5073120;28;20533;-71
2021/07/12 11:23:39;;;;;;;58.07;2.50;;;30.00;1.00;;;;;;5072630;28;20449;-72
2021/07/12 11:26:37;;;;;;;57.37;1.80;;;29.80;1.00;;;;;;5072804;28;20545;-72
2021/07/12 11:29:13;;;;;;;57.37;2.00;;;29.70;1.00;;;;;;5072998;28;20443;-72
2021/07/12 11:31:45;;;;;;;57.47;2.17;;;29.60;1.00;;;;;;5072288;28;20608;-71
2021/07/12 11:34:18;;;;;;;57.37;1.87;;;29.80;1.00;;;;;;5072397;28;20991;-72
2021/07/12 11:36:50;;;;;;;57.37;1.90;;;30.20;1.00;;;;;;5071509;28;20543;-71
2021/07/12 11:39:20;;;;;;;58.10;2.90;;;30.70;1.00;;;;;;5055420;28;20535;-72
2021/07/12 11:41:48;;;;;;;57.07;1.90;;;31.50;1.00;;;;;;5052426;28;20456;-72
2021/07/12 11:44:17;;;;;;;57.37;2.10;;;32.00;1.00;;;;;;5052637;28;20836;-72
2021/07/12 11:46:44;;;;;;;57.60;2.23;;;32.40;1.00;;;;;;5052578;28;20451;-71
2021/07/12 11:49:13;;;;;;;57.47;1.90;;;32.70;1.00;;;;;;5052350;28;20449;-72
2021/07/12 11:51:41;;;;;;;57.70;2.20;;;33.00;1.00;;;;;;5051881;28;20444;-72
2021/07/12 11:54:16;;;;;;;57.80;2.40;;;33.50;1.00;;;;;;5052377;28;20579;-72
2021/07/12 11:57:01;;;;;;;57.80;2.40;;;;;;;;;;5052492;28;20458;-72
2021/07/12 11:59:34;;;;;;;57.27;2.30;;;34.10;1.00;;;;;;5052274;28;20449;-72
2021/07/12 12:02:07;;;;;;;57.43;2.33;;;34.30;1.00;;;;;;5051856;28;20448;-72
2021/07/12 12:04:52;;;;;;;57.47;2.10;;;34.20;1.00;;;;;;5051912;28;20476;-71
2021/07/12 12:07:28;;;;;;;57.27;1.97;;;34.10;1.00;;;;;;5051002;28;20507;-70
2021/07/12 12:09:56;;;;;;;57.47;2.10;;;33.90;1.00;;;;;;5059109;28;20552;-72
2021/07/12 12:12:28;;;;;;;57.50;2.23;;;33.60;1.00;;;;;;5071754;28;20839;-72
2021/07/12 12:14:59;;;;;;;57.90;2.30;;;33.50;1.00;;;;;;5072087;28;20865;-72
2021/07/12 12:17:27;;;;;;;57.53;2.60;;;33.60;1.00;;;;;;5071854;28;20448;-72
2021/07/12 12:20:13;;;;;;;57.20;2.00;;;33.60;1.00;;;;;;5072023;28;20454;-71
2021/07/12 12:23:01;;;;;;;57.27;2.30;;;33.60;1.00;;;;;;5071146;28;20455;-72
2021/07/12 12:25:29;;;;;;;57.17;2.00;;;33.30;1.00;;;;;;5072056;28;20896;-72
2021/07/12 12:27:58;;;;;;;57.30;2.00;;;33.30;1.00;;;;;;5072087;28;20438;-71
2021/07/12 12:30:25;;;;;;;57.20;1.90;;;34.10;1.00;;;;;;5071877;28;20445;-72
2021/07/12 12:32:56;;;;;;;57.70;2.30;;;35.30;1.00;;;;;;5071468;28;20955;-72
2021/07/12 12:35:26;;;;;;;57.27;2.03;;;35.80;1.00;;;;;;5071452;28;20497;-72
2021/07/12 12:37:54;;;;;;;57.40;1.90;;;36.20;1.00;;;;;;5071849;28;20823;-72
2021/07/12 12:40:23;;;;;;;57.80;2.47;;;36.40;1.00;;;;;;5057019;28;20487;-72
2021/07/12 12:42:51;;;;;;;57.27;2.27;;;36.60;1.00;;;;;;5067372;28;20449;-71
2021/07/12 12:45:31;;;;;;;57.43;2.33;;;37.10;1.00;;;;;;5071628;28;20467;-71
2021/07/12 12:47:59;;;;;;;57.17;1.97;;;37.50;1.00;;;;;;5071809;28;20801;-72
2021/07/12 12:50:27;;;;;;;57.20;2.00;;;36.90;1.00;;;;;;5071670;28;20542;-72
2021/07/12 12:53:05;;;;;;;57.30;2.23;;;36.70;1.00;;;;;;5071389;28;20547;-72
2021/07/12 12:55:32;;;;;;;57.10;1.90;;;36.70;1.00;;;;;;5071454;28;20579;-71
2021/07/12 12:58:09;;;;;;;57.20;2.30;;;36.80;1.00;;;;;;5072060;28;20443;-72
2021/07/12 13:00:39;;;;;;;57.03;2.10;;;37.10;1.00;;;;;;5071700;28;20451;-71